createdAt,value
2023-04-21T00:01:10.743Z,9.40
2023-04-21T00:03:38.578Z,9.80
2023-04-21T00:06:06.517Z,8.90
2023-04-21T00:08:33.858Z,10.00
2023-04-21T00:11:00.920Z,10.00
2023-04-21T00:13:27.968Z,9.02
2023-04-21T00:15:55.089Z,9.43
2023-04-21T00:18:22.785Z,8.65
2023-04-21T00:20:49.862Z,9.90
2023-04-21T00:23:17.128Z,9.60
2023-04-21T00:25:44.164Z,9.68
2023-04-21T00:28:12.261Z,9.40
2023-04-21T00:30:39.345Z,8.95
2023-04-21T00:33:07.836Z,9.30
2023-04-21T00:35:34.887Z,10.07
2023-04-21T00:38:01.969Z,8.73
2023-04-21T00:40:29.021Z,10.07
2023-04-21T00:42:56.053Z,9.45
2023-04-21T00:45:23.106Z,8.20
2023-04-21T00:47:50.129Z,8.45
2023-04-21T00:50:17.340Z,7.70
2023-04-21T00:52:47.191Z,7.30
2023-04-21T00:55:15.174Z,7.20
2023-04-21T00:57:42.421Z,8.60
2023-04-21T01:00:10.597Z,8.05
2023-04-21T01:02:40.430Z,7.07
2023-04-21T01:05:09.537Z,7.95
2023-04-21T01:07:37.210Z,8.02
2023-04-21T01:10:05.461Z,7.65
2023-04-21T01:12:32.747Z,7.93
2023-04-21T01:14:59.748Z,9.70
2023-04-21T01:17:27.062Z,8.65
2023-04-21T01:19:56.785Z,7.45
2023-04-21T01:22:23.846Z,8.73
2023-04-21T01:24:51.731Z,9.65
2023-04-21T01:27:21.296Z,7.78
2023-04-21T01:29:52.754Z,8.88
2023-04-21T01:32:26.236Z,8.38
2023-04-21T01:34:55.344Z,7.20
2023-04-21T01:37:27.225Z,7.40
2023-04-21T01:39:57.345Z,8.65
2023-04-21T01:42:27.978Z,7.20
2023-04-21T01:44:55.857Z,8.57
2023-04-21T01:47:24.294Z,8.27
2023-04-21T01:49:52.559Z,8.50
2023-04-21T01:52:19.655Z,8.25
2023-04-21T01:54:46.763Z,8.68
2023-04-21T01:57:14.027Z,8.50
2023-04-21T01:59:41.311Z,8.27
2023-04-21T02:02:08.641Z,8.27
2023-04-21T02:04:36.496Z,8.98
2023-04-21T02:07:03.755Z,9.05
2023-04-21T02:09:31.238Z,9.38
2023-04-21T02:11:58.441Z,9.35
2023-04-21T02:14:26.519Z,8.88
2023-04-21T02:16:53.791Z,11.00
2023-04-21T02:19:21.108Z,8.60
2023-04-21T02:21:48.327Z,8.60
2023-04-21T02:24:15.482Z,7.90
2023-04-21T02:26:42.566Z,8.52
2023-04-21T02:29:09.642Z,8.10
2023-04-21T02:31:49.818Z,8.40
2023-04-21T02:34:23.891Z,7.72
2023-04-21T02:36:50.944Z,8.00
2023-04-21T02:39:18.152Z,8.77
2023-04-21T02:41:45.363Z,9.10
2023-04-21T02:44:12.407Z,7.85
2023-04-21T02:46:43.194Z,7.85
2023-04-21T02:49:11.118Z,8.20
2023-04-21T02:51:38.148Z,7.32
2023-04-21T02:54:05.449Z,8.50
2023-04-21T02:56:34.701Z,7.97
2023-04-21T02:59:01.970Z,7.18
2023-04-21T03:01:29.053Z,8.75
2023-04-21T03:03:56.460Z,7.05
2023-04-21T03:06:23.613Z,7.38
2023-04-21T03:08:50.668Z,7.68
2023-04-21T03:11:17.760Z,7.53
2023-04-21T03:13:44.849Z,7.10
2023-04-21T03:16:11.945Z,8.85
2023-04-21T03:18:39.092Z,10.48
2023-04-21T03:21:06.268Z,12.02
2023-04-21T03:23:33.564Z,11.40
2023-04-21T03:26:00.758Z,10.60
2023-04-21T03:28:27.794Z,9.18
2023-04-21T03:30:54.782Z,7.95
2023-04-21T03:33:21.864Z,7.40
2023-04-21T03:35:48.855Z,7.13
2023-04-21T03:38:15.858Z,11.25
2023-04-21T03:40:42.950Z,7.82
2023-04-21T03:43:09.994Z,7.90
2023-04-21T03:45:37.205Z,7.43
2023-04-21T03:48:04.844Z,8.10
2023-04-21T03:50:32.039Z,7.75
2023-04-21T03:52:59.120Z,9.13
2023-04-21T03:55:26.158Z,8.82
2023-04-21T03:57:53.250Z,7.60
2023-04-21T04:00:21.229Z,8.13
2023-04-21T04:02:48.507Z,7.43
2023-04-21T04:05:16.088Z,6.25
2023-04-21T04:07:43.160Z,6.75
2023-04-21T04:10:10.244Z,6.32
2023-04-21T04:12:37.347Z,6.63
2023-04-21T04:15:04.874Z,7.72
2023-04-21T04:17:32.014Z,7.55
2023-04-21T04:19:59.053Z,7.28
2023-04-21T04:22:26.116Z,10.73
2023-04-21T04:24:53.248Z,9.82
2023-04-21T04:27:21.506Z,9.48
2023-04-21T04:29:49.402Z,13.02
2023-04-21T04:32:16.597Z,10.13
2023-04-21T04:34:43.707Z,9.27
2023-04-21T04:37:11.392Z,9.70
2023-04-21T04:39:38.620Z,14.85
2023-04-21T04:42:10.296Z,13.00
2023-04-21T04:47:04.786Z,9.57
2023-04-21T04:49:32.018Z,12.57
2023-04-21T04:51:59.885Z,16.13
2023-04-21T04:54:29.049Z,6.85
2023-04-21T04:56:58.040Z,7.20
2023-04-21T04:59:25.186Z,16.05
2023-04-21T05:01:52.907Z,5.78
2023-04-21T05:04:21.920Z,6.25
2023-04-21T05:06:49.990Z,6.60
2023-04-21T05:09:17.102Z,5.97
2023-04-21T05:11:44.169Z,6.78
2023-04-21T05:14:11.313Z,6.85
2023-04-21T05:16:38.520Z,7.43
2023-04-21T05:19:05.647Z,6.95
2023-04-21T05:21:33.538Z,7.75
2023-04-21T05:24:01.210Z,8.30
2023-04-21T05:26:29.784Z,9.23
2023-04-21T05:28:58.338Z,5.82
2023-04-21T05:31:26.503Z,7.45
2023-04-21T05:33:53.727Z,8.40
2023-04-21T05:36:20.879Z,9.23
2023-04-21T05:38:48.123Z,10.98
2023-04-21T05:41:15.250Z,11.30
2023-04-21T05:43:42.529Z,10.18
2023-04-21T05:46:11.176Z,10.50
2023-04-21T05:48:38.448Z,10.25
2023-04-21T05:51:15.509Z,10.48
2023-04-21T05:53:44.659Z,8.35
2023-04-21T05:56:13.654Z,9.70
2023-04-21T05:58:41.871Z,8.07
2023-04-21T06:01:09.080Z,7.57
2023-04-21T06:03:36.586Z,7.65
2023-04-21T06:06:06.138Z,8.00
2023-04-21T06:08:33.581Z,7.68
2023-04-21T06:11:00.963Z,7.47
2023-04-21T06:13:28.127Z,8.90
2023-04-21T06:15:55.759Z,8.20
2023-04-21T06:18:24.142Z,8.38
2023-04-21T06:20:52.476Z,9.70
2023-04-21T06:23:19.664Z,8.32
2023-04-21T06:25:47.057Z,9.73
2023-04-21T06:28:14.222Z,10.35
2023-04-21T06:30:41.360Z,11.20
2023-04-21T06:33:08.559Z,10.18
2023-04-21T06:35:35.798Z,11.35
2023-04-21T06:38:02.815Z,11.05
2023-04-21T06:40:29.883Z,10.45
2023-04-21T06:42:56.987Z,12.15
2023-04-21T06:45:24.206Z,10.82
2023-04-21T06:47:51.351Z,11.77
2023-04-21T06:50:18.428Z,12.05
2023-04-21T06:52:45.470Z,11.73
2023-04-21T06:55:12.755Z,11.27
2023-04-21T06:57:41.312Z,11.82
2023-04-21T07:00:09.767Z,12.35
2023-04-21T07:02:36.947Z,11.52
2023-04-21T07:05:04.699Z,11.70
2023-04-21T07:07:31.862Z,11.63
2023-04-21T07:09:58.947Z,12.57
2023-04-21T07:12:26.098Z,12.45
2023-04-21T07:14:53.149Z,11.38
2023-04-21T07:17:20.232Z,11.85
2023-04-21T07:19:47.225Z,11.70
2023-04-21T07:22:14.313Z,10.90
2023-04-21T07:24:41.355Z,11.93
2023-04-21T07:27:08.375Z,13.30
2023-04-21T07:29:35.432Z,10.13
2023-04-21T07:32:02.495Z,11.57
2023-04-21T07:34:29.523Z,9.73
2023-04-21T07:36:56.716Z,10.40
2023-04-21T07:39:23.817Z,10.05
2023-04-21T07:41:50.866Z,10.20
2023-04-21T07:44:17.961Z,11.07
2023-04-21T07:46:45.145Z,9.35
2023-04-21T07:49:12.400Z,9.65
2023-04-21T07:51:40.343Z,9.45
2023-04-21T07:54:07.432Z,8.38
2023-04-21T07:56:34.521Z,9.18
2023-04-21T07:59:01.584Z,8.13
2023-04-21T08:01:28.640Z,7.80
2023-04-21T08:03:55.759Z,8.50
2023-04-21T08:06:22.948Z,7.18
2023-04-21T08:08:50.448Z,7.72
2023-04-21T08:11:17.902Z,8.27
2023-04-21T08:13:44.946Z,7.22
2023-04-21T08:16:12.076Z,7.80
2023-04-21T08:18:39.130Z,8.38
2023-04-21T08:21:06.415Z,7.35
2023-04-21T08:23:33.559Z,6.72
2023-04-21T08:26:02.800Z,6.78
2023-04-21T08:28:29.869Z,6.75
2023-04-21T08:30:57.055Z,6.15
2023-04-21T08:33:24.097Z,6.95
2023-04-21T08:36:03.853Z,5.78
2023-04-21T08:38:33.287Z,5.47
2023-04-21T08:41:01.203Z,5.70
2023-04-21T08:43:29.547Z,5.97
2023-04-21T08:45:57.381Z,4.97
2023-04-21T08:48:26.453Z,5.00
2023-04-21T08:50:54.014Z,5.28
2023-04-21T08:53:21.771Z,4.90
2023-04-21T08:56:09.933Z,5.28
2023-04-21T08:58:38.433Z,4.35
2023-04-21T09:01:06.013Z,3.95
2023-04-21T09:03:33.476Z,3.72
2023-04-21T09:06:05.577Z,3.65
2023-04-21T09:08:34.455Z,3.33
2023-04-21T09:11:02.012Z,3.38
2023-04-21T09:13:37.194Z,3.78
2023-04-21T09:16:18.374Z,2.83
2023-04-21T09:18:45.825Z,3.63
2023-04-21T09:21:16.318Z,3.97
2023-04-21T09:23:52.318Z,3.45
2023-04-21T09:26:23.086Z,3.40
2023-04-21T09:28:52.992Z,2.60
2023-04-21T09:31:25.192Z,2.80
2023-04-21T09:34:00.064Z,2.88
2023-04-21T09:36:30.685Z,3.00
2023-04-21T09:41:34.226Z,4.50
2023-04-21T09:44:01.941Z,2.58
2023-04-21T09:46:33.512Z,2.72
2023-04-21T09:49:04.726Z,2.80
2023-04-21T09:51:56.332Z,2.88
2023-04-21T09:56:54.383Z,2.65
2023-04-21T09:59:28.319Z,2.70
2023-04-21T10:01:58.356Z,2.38
2023-04-21T10:04:26.622Z,2.75
2023-04-21T10:06:54.959Z,2.13
2023-04-21T10:09:25.906Z,2.28
2023-04-21T10:11:55.649Z,2.53
2023-04-21T10:14:22.924Z,2.30
2023-04-21T10:17:26.108Z,2.13
2023-04-21T10:19:58.427Z,2.30
2023-04-21T10:22:33.666Z,2.92
2023-04-21T10:25:03.592Z,2.85
2023-04-21T10:27:41.567Z,2.53
2023-04-21T10:30:23.296Z,2.58
2023-04-21T10:33:04.358Z,1.98
2023-04-21T10:36:05.105Z,2.47
2023-04-21T10:38:43.159Z,2.20
2023-04-21T10:41:31.772Z,1.95
2023-04-21T10:44:12.308Z,2.30
2023-04-21T10:46:47.361Z,2.15
2023-04-21T10:49:30.761Z,2.70
2023-04-21T10:52:03.373Z,2.22
2023-04-21T10:54:42.301Z,2.10
2023-04-21T10:57:12.420Z,2.13
2023-04-21T10:59:40.693Z,2.33
2023-04-21T11:02:12.300Z,1.98
2023-04-21T11:04:44.957Z,2.08
2023-04-21T11:07:21.412Z,2.17
2023-04-21T11:09:57.360Z,1.80
2023-04-21T11:12:32.453Z,1.92
2023-04-21T11:14:59.532Z,1.70
2023-04-21T11:17:26.663Z,2.65
2023-04-21T11:19:57.878Z,1.60
2023-04-21T11:22:27.083Z,1.75
2023-04-21T11:24:56.485Z,1.67
2023-04-21T11:27:26.818Z,1.60
2023-04-21T11:29:53.867Z,1.80
2023-04-21T11:32:21.898Z,1.85
2023-04-21T11:34:49.151Z,1.58
2023-04-21T11:37:23.290Z,1.70
2023-04-21T11:39:50.529Z,1.73
2023-04-21T11:42:23.771Z,1.35
2023-04-21T11:44:50.931Z,3.35
2023-04-21T11:47:21.466Z,1.73
2023-04-21T11:50:09.824Z,1.27
2023-04-21T11:52:37.835Z,1.80
2023-04-21T11:55:16.420Z,1.63
2023-04-21T11:57:43.852Z,1.60
2023-04-21T12:00:15.704Z,1.92
2023-04-21T12:05:13.584Z,1.20
2023-04-21T12:07:49.030Z,1.90
2023-04-21T12:10:21.047Z,1.48
2023-04-21T12:12:49.174Z,3.55
2023-04-21T12:15:23.167Z,1.40
2023-04-21T12:17:53.841Z,1.63
2023-04-21T12:20:25.034Z,1.90
2023-04-21T12:22:52.642Z,1.45
2023-04-21T12:25:19.985Z,1.60
2023-04-21T12:27:54.384Z,1.83
2023-04-21T12:30:22.006Z,1.55
2023-04-21T12:32:49.488Z,2.00
2023-04-21T12:35:16.666Z,1.40
2023-04-21T12:37:44.923Z,1.67
2023-04-21T12:40:12.224Z,1.40
2023-04-21T12:42:39.272Z,1.40
2023-04-21T12:45:07.373Z,1.30
2023-04-21T12:47:36.910Z,1.35
2023-04-21T12:50:06.705Z,1.45
2023-04-21T12:52:33.807Z,1.08
2023-04-21T12:55:00.948Z,1.90
2023-04-21T12:57:29.017Z,1.10
2023-04-21T12:59:56.154Z,1.92
2023-04-21T13:02:23.349Z,2.22
2023-04-21T13:04:50.528Z,1.92
2023-04-21T13:07:21.333Z,1.85
2023-04-21T13:09:48.555Z,1.30
2023-04-21T13:12:15.634Z,1.42
2023-04-21T13:14:42.788Z,0.90
2023-04-21T13:17:10.098Z,1.77
2023-04-21T13:19:37.174Z,1.23
2023-04-21T13:22:04.234Z,1.40
2023-04-21T13:24:31.383Z,1.02
2023-04-21T13:27:06.395Z,1.10
2023-04-21T13:29:34.186Z,1.00
2023-04-21T13:32:06.655Z,1.27
2023-04-21T13:34:34.900Z,1.13
2023-04-21T13:37:02.252Z,0.90
2023-04-21T13:39:29.422Z,2.13
2023-04-21T13:41:56.814Z,2.78
2023-04-21T13:44:23.943Z,1.75
2023-04-21T13:46:52.963Z,1.30
2023-04-21T13:49:21.096Z,1.50
2023-04-21T13:51:48.203Z,1.55
2023-04-21T13:54:15.603Z,1.20
2023-04-21T13:56:42.947Z,2.35
2023-04-21T13:59:11.407Z,1.30
2023-04-21T14:01:38.554Z,1.75
2023-04-21T14:04:05.900Z,2.70
2023-04-21T14:06:33.593Z,1.25
2023-04-21T14:09:00.731Z,1.20
2023-04-21T14:11:27.866Z,1.10
2023-04-21T14:14:08.427Z,1.30
2023-04-21T14:16:37.116Z,1.27
2023-04-21T14:19:04.489Z,1.13
2023-04-21T14:21:32.584Z,1.50
2023-04-21T14:23:59.811Z,1.75
2023-04-21T14:26:27.190Z,1.80
2023-04-21T14:28:54.307Z,0.95
2023-04-21T14:31:22.388Z,1.20
2023-04-21T14:33:49.702Z,1.38
2023-04-21T14:36:16.842Z,1.85
2023-04-21T14:38:44.001Z,1.50
2023-04-21T14:41:11.107Z,1.35
2023-04-21T14:43:38.424Z,2.60
2023-04-21T14:46:05.828Z,1.40
2023-04-21T14:48:33.487Z,0.98
2023-04-21T14:51:01.081Z,1.65
2023-04-21T14:53:28.328Z,1.35
2023-04-21T14:55:55.495Z,1.50
2023-04-21T14:58:22.679Z,1.38
2023-04-21T15:00:49.800Z,2.22
2023-04-21T15:03:17.145Z,1.85
2023-04-21T15:05:44.286Z,1.63
2023-04-21T15:08:12.007Z,1.60
2023-04-21T15:10:39.088Z,1.38
2023-04-21T15:13:06.198Z,2.20
2023-04-21T15:15:33.277Z,1.10
2023-04-21T15:18:00.502Z,1.00
2023-04-21T15:20:43.150Z,1.50
2023-04-21T15:23:14.455Z,1.10
2023-04-21T15:25:42.137Z,1.60
2023-04-21T15:28:09.799Z,1.77
2023-04-21T15:30:37.361Z,1.35
2023-04-21T15:33:04.758Z,1.33
2023-04-21T15:35:32.260Z,1.92
2023-04-21T15:37:59.326Z,1.42
2023-04-21T15:40:27.102Z,2.72
2023-04-21T15:42:54.233Z,1.10
2023-04-21T15:45:21.399Z,1.60
2023-04-21T15:47:48.515Z,1.40
2023-04-21T15:50:16.140Z,1.13
2023-04-21T15:52:43.592Z,1.42
2023-04-21T15:55:12.231Z,1.85
2023-04-21T15:57:39.555Z,1.30
2023-04-21T16:00:08.704Z,1.30
2023-04-21T16:02:36.407Z,2.00
2023-04-21T16:05:04.214Z,1.45
2023-04-21T16:07:31.608Z,1.42
2023-04-21T16:09:58.860Z,1.33
2023-04-21T16:12:26.129Z,2.03
2023-04-21T16:15:01.757Z,1.65
2023-04-21T16:17:36.981Z,1.10
2023-04-21T16:20:05.875Z,1.33
2023-04-21T16:22:33.125Z,1.30
2023-04-21T16:25:00.912Z,1.10
2023-04-21T16:27:28.095Z,1.48
2023-04-21T16:29:55.439Z,1.02
2023-04-21T16:32:22.593Z,1.42
2023-04-21T16:34:49.951Z,1.38
2023-04-21T16:37:18.248Z,1.38
2023-04-21T16:39:46.216Z,0.95
2023-04-21T16:42:13.333Z,1.30
2023-04-21T16:44:40.733Z,1.30
2023-04-21T16:47:08.107Z,1.20
2023-04-21T16:49:35.276Z,1.40
2023-04-21T16:52:02.382Z,1.67
2023-04-21T16:54:29.536Z,1.65
2023-04-21T16:56:57.721Z,1.20
2023-04-21T16:59:25.082Z,1.85
2023-04-21T17:01:52.429Z,1.27
2023-04-21T17:04:19.595Z,1.33
2023-04-21T17:06:48.505Z,1.10
2023-04-21T17:09:15.761Z,1.23
2023-04-21T17:11:42.948Z,0.93
2023-04-21T17:14:10.876Z,1.20
2023-04-21T17:16:38.075Z,1.42
2023-04-21T17:19:05.196Z,1.27
2023-04-21T17:21:32.640Z,1.10
2023-04-21T17:23:59.763Z,1.27
2023-04-21T17:26:27.626Z,1.75
2023-04-21T17:28:54.836Z,1.02
2023-04-21T17:31:21.961Z,1.00
2023-04-21T17:33:49.136Z,0.98
2023-04-21T17:36:17.045Z,1.90
2023-04-21T17:38:44.327Z,1.20
2023-04-21T17:41:11.627Z,0.93
2023-04-21T17:43:39.254Z,1.55
2023-04-21T17:46:07.659Z,2.40
2023-04-21T17:48:34.902Z,2.00
2023-04-21T17:51:02.128Z,1.17
2023-04-21T17:53:29.220Z,1.73
2023-04-21T17:55:56.620Z,2.58
2023-04-21T17:58:26.356Z,2.03
2023-04-21T18:00:54.645Z,1.02
2023-04-21T18:03:22.323Z,1.30
2023-04-21T18:05:50.028Z,1.42
2023-04-21T18:08:17.146Z,1.00
2023-04-21T18:10:44.280Z,1.35
2023-04-21T18:13:11.336Z,1.40
2023-04-21T18:15:39.122Z,1.50
2023-04-21T18:18:06.537Z,2.22
2023-04-21T18:20:33.768Z,1.48
2023-04-21T18:23:00.929Z,1.40
2023-04-21T18:25:41.487Z,2.42
2023-04-21T18:28:11.162Z,1.50
2023-04-21T18:30:42.311Z,1.90
2023-04-21T18:33:12.638Z,1.70
2023-04-21T18:35:42.002Z,1.58
2023-04-21T18:38:11.916Z,1.60
2023-04-21T18:40:40.741Z,2.08
2023-04-21T18:43:09.884Z,1.58
2023-04-21T18:45:37.799Z,1.90
2023-04-21T18:48:05.869Z,1.50
2023-04-21T18:50:35.886Z,2.38
2023-04-21T18:53:04.455Z,2.05
2023-04-21T18:55:33.557Z,2.03
2023-04-21T18:58:02.337Z,2.15
2023-04-21T19:00:30.313Z,2.20
2023-04-21T19:03:00.288Z,2.40
2023-04-21T19:05:29.806Z,2.03
2023-04-21T19:07:58.648Z,2.38
2023-04-21T19:10:26.777Z,1.98
2023-04-21T19:12:54.386Z,2.13
2023-04-21T19:15:22.249Z,2.00
2023-04-21T19:17:49.350Z,1.92
2023-04-21T19:20:16.607Z,2.13
2023-04-21T19:22:44.500Z,2.03
2023-04-21T19:25:12.076Z,2.33
2023-04-21T19:27:40.785Z,2.03
2023-04-21T19:30:09.133Z,2.13
2023-04-21T19:32:36.197Z,5.28
2023-04-21T19:35:03.326Z,2.72
2023-04-21T19:37:33.535Z,2.25
2023-04-21T19:40:03.923Z,3.08
2023-04-21T19:42:31.513Z,2.80
2023-04-21T19:44:58.539Z,2.70
2023-04-21T19:47:25.694Z,2.80
2023-04-21T19:49:52.886Z,2.42
2023-04-21T19:52:20.040Z,3.35
2023-04-21T19:54:47.125Z,2.53
2023-04-21T19:57:15.168Z,2.65
2023-04-21T19:59:42.233Z,3.58
2023-04-21T20:02:09.855Z,3.13
2023-04-21T20:04:37.653Z,3.20
2023-04-21T20:07:05.923Z,3.30
2023-04-21T20:09:33.097Z,3.50
2023-04-21T20:12:00.353Z,3.83
2023-04-21T20:14:27.580Z,5.05
2023-04-21T20:16:54.652Z,4.22
2023-04-21T20:19:22.966Z,3.17
2023-04-21T20:21:50.222Z,3.15
2023-04-21T20:24:24.142Z,2.13
2023-04-21T20:26:53.560Z,3.08
2023-04-21T20:29:21.019Z,4.35
2023-04-21T20:31:48.097Z,3.05
2023-04-21T20:34:15.154Z,2.83
2023-04-21T20:36:42.360Z,2.53
2023-04-21T20:39:09.611Z,2.55
2023-04-21T20:41:36.656Z,2.53
2023-04-21T20:44:09.619Z,3.17
2023-04-21T20:46:36.960Z,3.20
2023-04-21T20:49:04.333Z,2.58
2023-04-21T20:51:32.745Z,3.95
2023-04-21T20:54:01.006Z,2.78
2023-04-21T20:56:28.162Z,3.20
2023-04-21T20:58:55.681Z,3.92
2023-04-21T21:01:23.685Z,3.38
2023-04-21T21:03:51.828Z,3.97
2023-04-21T21:06:24.789Z,4.22
2023-04-21T21:08:52.064Z,2.90
2023-04-21T21:11:19.169Z,2.50
2023-04-21T21:13:46.249Z,3.20
2023-04-21T21:16:14.042Z,2.45
2023-04-21T21:18:50.973Z,2.05
2023-04-21T21:21:18.101Z,3.08
2023-04-21T21:23:45.584Z,3.25
2023-04-21T21:26:12.729Z,2.60
2023-04-21T21:28:40.212Z,4.30
2023-04-21T21:31:07.285Z,2.50
2023-04-21T21:33:55.494Z,3.60
2023-04-21T21:36:22.597Z,2.85
2023-04-21T21:38:49.749Z,4.82
2023-04-21T21:41:19.086Z,3.35
2023-04-21T21:43:46.356Z,3.33
2023-04-21T21:46:13.867Z,2.60
2023-04-21T21:48:42.707Z,3.35
2023-04-21T21:51:09.883Z,2.30
2023-04-21T21:53:36.954Z,2.65
2023-04-21T21:56:04.238Z,2.70
2023-04-21T21:58:31.420Z,3.53
2023-04-21T22:00:59.419Z,3.08
2023-04-21T22:03:27.388Z,2.22
2023-04-21T22:05:54.631Z,3.42
2023-04-21T22:08:21.712Z,3.95
2023-04-21T22:10:48.828Z,3.90
2023-04-21T22:13:15.920Z,3.40
2023-04-21T22:15:43.007Z,2.40
2023-04-21T22:18:10.106Z,4.75
2023-04-21T22:20:37.284Z,4.85
2023-04-21T22:23:04.556Z,3.10
2023-04-21T22:25:31.833Z,3.90
2023-04-21T22:27:59.080Z,5.32
2023-04-21T22:30:26.317Z,2.92
2023-04-21T22:32:53.642Z,2.50
2023-04-21T22:35:21.110Z,2.78
2023-04-21T22:37:48.139Z,4.63
2023-04-21T22:40:15.410Z,2.88
2023-04-21T22:42:42.653Z,3.20
2023-04-21T22:45:10.242Z,3.03
2023-04-21T22:47:37.487Z,2.65
2023-04-21T22:50:05.227Z,3.28
2023-04-21T22:52:32.289Z,3.22
2023-04-21T22:54:59.345Z,4.00
2023-04-21T22:57:27.395Z,3.50
2023-04-21T22:59:54.499Z,4.28
2023-04-21T23:02:21.776Z,2.92
2023-04-21T23:04:48.949Z,3.78
2023-04-21T23:07:16.045Z,4.30
2023-04-21T23:09:43.104Z,2.00
2023-04-21T23:12:10.163Z,2.78
2023-04-21T23:14:37.629Z,3.05
2023-04-21T23:17:05.308Z,2.75
2023-04-21T23:19:32.418Z,2.95
2023-04-21T23:21:59.587Z,2.50
2023-04-21T23:24:26.786Z,2.22
2023-04-21T23:26:53.981Z,2.70
2023-04-21T23:29:21.069Z,2.33
2023-04-21T23:31:48.343Z,3.33
2023-04-21T23:34:15.535Z,3.85
2023-04-21T23:36:42.606Z,3.15
2023-04-21T23:39:11.129Z,2.58
2023-04-21T23:41:38.327Z,4.47
2023-04-21T23:44:05.562Z,3.72
2023-04-21T23:46:32.828Z,3.65
2023-04-21T23:49:00.003Z,2.25
2023-04-21T23:51:28.244Z,3.53
2023-04-21T23:53:55.755Z,2.42
2023-04-21T23:56:22.973Z,3.70
2023-04-21T23:58:50.123Z,2.55
